Warning: Javascript must be enabled to use all the features on this page!


Page Loading - Please Wait...

Click to hideNews Bulletins
  • Explore the NEW USGS National Water Dashboard interactive map to access real-time water data from over 13,500 stations nationwide.
  • Full News RSS icon
  • USGS has scheduled planned maintenance to our IT infrastructure, starting Tuesday, June 28, 2022, from 8:00-10:00am Eastern Daylight Time (EDT). During the maintenance period, there will be a short interruption in the availability of the most recent time-series data. Any backlog will be made available following conclusion of the scheduled maintenance.

Peak Streamflow for the Nation

USGS 16325000 Kamananui Str at Pupukea Mil Rd, Oahu, HI

Honolulu County, Hawaii
Hydrologic Unit Code 20060000
Latitude  21°37'14", Longitude 158°00'54" NAD83
Drainage area 3.15  square miles
Gage datum 590 feet above LMSL
Output formats
Table
Graph
Tab-separated file
peakfq (watstore) format
Reselect output format
Water
Year
Date Gage
Height
(feet)
Stream-
flow
(cfs)
1964 1964-03-08 7.50 1,020
1965 1965-02-04 8.23 1,310
1966 1965-11-14 7.82 1,140
1967 1967-03-22 8.23 1,310
1968 1968-04-20 9.13 1,720
1969 1969-02-01 8.72 1,510
1970 1969-12-27 8.28 1,330
1971 1971-04-24 8.91 1,600
1972 1971-12-19 6.92 856
1973 1972-10-03 6.02 615
1974 1974-07-17 8.57 1,450
1975 1975-01-30 10.06 3,390
1976 1975-11-25 8.29 1,590
1977 1977-04-19 7.90 1,300
1978 1978-06-28 7.01 834
1979 1979-02-10 7.29 955
1980 1980-03-19 9.10 2,350
1981 1981-04-14 6.46 616
1982 1982-01-06 9.54 2,790
1983 1982-10-27 6.93 802
1984 1984-01-05 5.56 345
1985 1984-11-26 8.29 1,590
1986 1986-09-29 6.42 602
1987 1986-11-10 7.40 1,010
1988 1987-12-31 9.62 2,870
1989 1989-04-09 7.62 1,120
1990 1990-03-01 7.82 1,240
1991 1990-11-20 11.34 4,810
1992 1991-10-16 8.15 1,460
1993 1992-11-26 8.12 1,440
1994 1994-03-24 7.82 1,240
1995 1995-08-23 6.61 674
1996 1996-01-24 9.16 2,270
1997 1997-01-19 8.54 1,760
1998 1998-01-17 5.08 241
1999 1999-01-08 5.58 342
2000 1999-12-11 7.43 1,060
2001 2000-10-29 6.63 696
2014 2014-07-20 9.33  
2015 2015-08-24 7.21  
2016 2015-11-23 7.07  
2018 2018-02-18 8.14  
2019 2018-11-09 8.67